sensor_id;sensor_type;location;lat;lon;timestamp;P1;durP1;ratioP1;P2;durP2;ratioP2
53871;SDS011;39787;53.174;5.798;2023-07-28T00:00:25;37.27;;;9.57;;
53871;SDS011;39787;53.174;5.798;2023-07-28T00:01:26;30.77;;;8.50;;
53871;SDS011;39787;53.174;5.798;2023-07-28T00:02:27;32.13;;;8.85;;
53871;SDS011;39787;53.174;5.798;2023-07-28T00:03:27;29.83;;;9.07;;
53871;SDS011;39787;53.174;5.798;2023-07-28T00:04:27;39.90;;;9.67;;
53871;SDS011;39787;53.174;5.798;2023-07-28T00:05:28;27.27;;;8.57;;
53871;SDS011;39787;53.174;5.798;2023-07-28T00:06:28;38.53;;;9.27;;
53871;SDS011;39787;53.174;5.798;2023-07-28T00:07:29;34.13;;;9.70;;
53871;SDS011;39787;53.174;5.798;2023-07-28T00:08:30;34.78;;;8.77;;
53871;SDS011;39787;53.174;5.798;2023-07-28T00:09:30;35.03;;;9.53;;
53871;SDS011;39787;53.174;5.798;2023-07-28T00:10:31;39.13;;;9.65;;
53871;SDS011;39787;53.174;5.798;2023-07-28T00:11:31;33.03;;;9.50;;
53871;SDS011;39787;53.174;5.798;2023-07-28T00:12:32;33.47;;;8.77;;
53871;SDS011;39787;53.174;5.798;2023-07-28T00:13:34;42.42;;;9.98;;
53871;SDS011;39787;53.174;5.798;2023-07-28T00:14:34;37.00;;;10.47;;
53871;SDS011;39787;53.174;5.798;2023-07-28T00:15:35;36.87;;;10.77;;
53871;SDS011;39787;53.174;5.798;2023-07-28T00:16:35;40.88;;;10.90;;
53871;SDS011;39787;53.174;5.798;2023-07-28T00:17:36;46.83;;;11.87;;
53871;SDS011;39787;53.174;5.798;2023-07-28T00:18:36;35.90;;;10.60;;
53871;SDS011;39787;53.174;5.798;2023-07-28T00:19:37;39.77;;;10.73;;
53871;SDS011;39787;53.174;5.798;2023-07-28T00:20:37;32.67;;;10.47;;
53871;SDS011;39787;53.174;5.798;2023-07-28T00:21:38;31.97;;;11.20;;
53871;SDS011;39787;53.174;5.798;2023-07-28T00:22:38;38.63;;;9.97;;
53871;SDS011;39787;53.174;5.798;2023-07-28T00:23:39;47.63;;;10.73;;
53871;SDS011;39787;53.174;5.798;2023-07-28T00:24:39;34.00;;;10.67;;
53871;SDS011;39787;53.174;5.798;2023-07-28T00:25:40;35.53;;;10.30;;
53871;SDS011;39787;53.174;5.798;2023-07-28T00:26:40;37.57;;;10.20;;
53871;SDS011;39787;53.174;5.798;2023-07-28T00:27:40;34.37;;;9.50;;
53871;SDS011;39787;53.174;5.798;2023-07-28T00:28:41;36.63;;;10.07;;
53871;SDS011;39787;53.174;5.798;2023-07-28T00:29:41;48.67;;;10.57;;
53871;SDS011;39787;53.174;5.798;2023-07-28T00:30:42;39.07;;;11.00;;
53871;SDS011;39787;53.174;5.798;2023-07-28T00:31:43;39.03;;;10.40;;
53871;SDS011;39787;53.174;5.798;2023-07-28T00:32:43;41.47;;;10.63;;
53871;SDS011;39787;53.174;5.798;2023-07-28T00:33:44;42.40;;;10.70;;
53871;SDS011;39787;53.174;5.798;2023-07-28T00:34:44;49.63;;;12.30;;
53871;SDS011;39787;53.174;5.798;2023-07-28T00:35:44;43.13;;;11.00;;
53871;SDS011;39787;53.174;5.798;2023-07-28T00:36:45;42.93;;;11.27;;
53871;SDS011;39787;53.174;5.798;2023-07-28T00:37:45;33.83;;;10.83;;
53871;SDS011;39787;53.174;5.798;2023-07-28T00:38:46;38.07;;;11.33;;
53871;SDS011;39787;53.174;5.798;2023-07-28T00:39:47;43.20;;;11.40;;
53871;SDS011;39787;53.174;5.798;2023-07-28T00:40:47;43.43;;;11.50;;
53871;SDS011;39787;53.174;5.798;2023-07-28T00:41:47;34.13;;;10.40;;
53871;SDS011;39787;53.174;5.798;2023-07-28T00:42:48;40.93;;;11.53;;
53871;SDS011;39787;53.174;5.798;2023-07-28T00:43:49;48.50;;;12.63;;
53871;SDS011;39787;53.174;5.798;2023-07-28T00:44:49;52.13;;;12.67;;
53871;SDS011;39787;53.174;5.798;2023-07-28T00:45:50;46.00;;;12.67;;
53871;SDS011;39787;53.174;5.798;2023-07-28T00:46:51;41.08;;;10.73;;
53871;SDS011;39787;53.174;5.798;2023-07-28T00:47:51;42.17;;;11.83;;
53871;SDS011;39787;53.174;5.798;2023-07-28T00:48:52;37.00;;;12.07;;
53871;SDS011;39787;53.174;5.798;2023-07-28T00:49:53;37.53;;;11.68;;
53871;SDS011;39787;53.174;5.798;2023-07-28T00:50:53;45.73;;;11.77;;
53871;SDS011;39787;53.174;5.798;2023-07-28T00:51:54;55.23;;;12.93;;
53871;SDS011;39787;53.174;5.798;2023-07-28T00:52:55;41.28;;;11.85;;
53871;SDS011;39787;53.174;5.798;2023-07-28T00:53:55;51.10;;;13.10;;
53871;SDS011;39787;53.174;5.798;2023-07-28T00:54:56;39.63;;;11.03;;
53871;SDS011;39787;53.174;5.798;2023-07-28T00:55:57;46.00;;;11.67;;
53871;SDS011;39787;53.174;5.798;2023-07-28T00:56:57;39.13;;;10.87;;
53871;SDS011;39787;53.174;5.798;2023-07-28T00:57:58;46.63;;;11.60;;
53871;SDS011;39787;53.174;5.798;2023-07-28T00:58:58;40.15;;;10.93;;
53871;SDS011;39787;53.174;5.798;2023-07-28T00:59:59;36.80;;;10.33;;
53871;SDS011;39787;53.174;5.798;2023-07-28T01:01:00;50.53;;;12.00;;
53871;SDS011;39787;53.174;5.798;2023-07-28T01:02:01;38.60;;;11.40;;
53871;SDS011;39787;53.174;5.798;2023-07-28T01:03:02;62.63;;;12.27;;
53871;SDS011;39787;53.174;5.798;2023-07-28T01:05:03;47.28;;;11.73;;
53871;SDS011;39787;53.174;5.798;2023-07-28T01:07:14;39.10;;;11.20;;
53871;SDS011;39787;53.174;5.798;2023-07-28T01:08:26;37.95;;;11.70;;
53871;SDS011;39787;53.174;5.798;2023-07-28T01:10:24;46.53;;;12.00;;
53871;SDS011;39787;53.174;5.798;2023-07-28T01:11:13;40.42;;;11.52;;
53871;SDS011;39787;53.174;5.798;2023-07-28T01:12:14;44.40;;;11.88;;
53871;SDS011;39787;53.174;5.798;2023-07-28T01:13:14;46.63;;;11.77;;
53871;SDS011;39787;53.174;5.798;2023-07-28T01:14:15;37.83;;;10.60;;
53871;SDS011;39787;53.174;5.798;2023-07-28T01:15:15;52.80;;;11.90;;
53871;SDS011;39787;53.174;5.798;2023-07-28T01:16:16;40.03;;;11.40;;
53871;SDS011;39787;53.174;5.798;2023-07-28T01:17:17;40.38;;;10.63;;
53871;SDS011;39787;53.174;5.798;2023-07-28T01:18:17;36.20;;;10.93;;
53871;SDS011;39787;53.174;5.798;2023-07-28T01:19:19;42.33;;;11.83;;
53871;SDS011;39787;53.174;5.798;2023-07-28T01:20:21;43.25;;;11.40;;
53871;SDS011;39787;53.174;5.798;2023-07-28T01:21:28;53.63;;;11.00;;
53871;SDS011;39787;53.174;5.798;2023-07-28T01:22:37;41.72;;;10.20;;
53871;SDS011;39787;53.174;5.798;2023-07-28T01:23:59;32.22;;;10.38;;
53871;SDS011;39787;53.174;5.798;2023-07-28T01:25:14;44.03;;;11.38;;
53871;SDS011;39787;53.174;5.798;2023-07-28T01:26:37;41.55;;;9.57;;
53871;SDS011;39787;53.174;5.798;2023-07-28T01:27:38;38.53;;;9.45;;
53871;SDS011;39787;53.174;5.798;2023-07-28T01:28:39;42.33;;;9.73;;
53871;SDS011;39787;53.174;5.798;2023-07-28T01:29:41;44.30;;;10.57;;
53871;SDS011;39787;53.174;5.798;2023-07-28T01:30:41;42.47;;;10.15;;
53871;SDS011;39787;53.174;5.798;2023-07-28T01:31:42;40.03;;;8.97;;
53871;SDS011;39787;53.174;5.798;2023-07-28T01:32:43;35.77;;;8.90;;
53871;SDS011;39787;53.174;5.798;2023-07-28T01:33:43;42.77;;;9.63;;
53871;SDS011;39787;53.174;5.798;2023-07-28T01:34:43;33.77;;;8.73;;
53871;SDS011;39787;53.174;5.798;2023-07-28T01:35:44;40.53;;;8.77;;
53871;SDS011;39787;53.174;5.798;2023-07-28T01:36:44;44.30;;;8.60;;
53871;SDS011;39787;53.174;5.798;2023-07-28T01:37:45;38.77;;;9.13;;
53871;SDS011;39787;53.174;5.798;2023-07-28T01:38:45;41.70;;;7.97;;
53871;SDS011;39787;53.174;5.798;2023-07-28T01:39:46;37.23;;;8.63;;
53871;SDS011;39787;53.174;5.798;2023-07-28T01:40:46;35.47;;;8.30;;
53871;SDS011;39787;53.174;5.798;2023-07-28T01:41:47;33.20;;;7.73;;
53871;SDS011;39787;53.174;5.798;2023-07-28T01:42:47;39.93;;;8.13;;
53871;SDS011;39787;53.174;5.798;2023-07-28T01:43:48;41.67;;;7.77;;
53871;SDS011;39787;53.174;5.798;2023-07-28T01:44:48;29.73;;;7.20;;
53871;SDS011;39787;53.174;5.798;2023-07-28T01:45:50;36.60;;;7.55;;
53871;SDS011;39787;53.174;5.798;2023-07-28T01:46:50;33.77;;;7.10;;
53871;SDS011;39787;53.174;5.798;2023-07-28T01:47:51;31.63;;;7.20;;
53871;SDS011;39787;53.174;5.798;2023-07-28T01:48:51;38.70;;;7.50;;
53871;SDS011;39787;53.174;5.798;2023-07-28T01:49:51;28.40;;;7.07;;
53871;SDS011;39787;53.174;5.798;2023-07-28T01:50:52;36.73;;;7.43;;
53871;SDS011;39787;53.174;5.798;2023-07-28T01:51:52;43.83;;;8.57;;
53871;SDS011;39787;53.174;5.798;2023-07-28T01:52:53;39.37;;;7.10;;
53871;SDS011;39787;53.174;5.798;2023-07-28T01:53:53;36.37;;;6.83;;
53871;SDS011;39787;53.174;5.798;2023-07-28T01:54:54;27.57;;;5.70;;
53871;SDS011;39787;53.174;5.798;2023-07-28T01:55:54;28.33;;;6.43;;
53871;SDS011;39787;53.174;5.798;2023-07-28T01:56:55;42.47;;;8.13;;
53871;SDS011;39787;53.174;5.798;2023-07-28T01:57:56;39.10;;;6.93;;
53871;SDS011;39787;53.174;5.798;2023-07-28T01:58:58;37.42;;;7.20;;
53871;SDS011;39787;53.174;5.798;2023-07-28T01:59:59;34.93;;;6.80;;
53871;SDS011;39787;53.174;5.798;2023-07-28T02:00:59;26.30;;;6.15;;
53871;SDS011;39787;53.174;5.798;2023-07-28T02:02:00;27.73;;;6.27;;
53871;SDS011;39787;53.174;5.798;2023-07-28T02:03:00;39.27;;;6.37;;
53871;SDS011;39787;53.174;5.798;2023-07-28T02:04:01;32.53;;;6.20;;
53871;SDS011;39787;53.174;5.798;2023-07-28T02:05:01;34.27;;;6.97;;
53871;SDS011;39787;53.174;5.798;2023-07-28T02:06:02;35.17;;;6.10;;
53871;SDS011;39787;53.174;5.798;2023-07-28T02:07:03;27.37;;;6.60;;
53871;SDS011;39787;53.174;5.798;2023-07-28T02:08:03;26.00;;;5.63;;
53871;SDS011;39787;53.174;5.798;2023-07-28T02:09:04;31.23;;;6.57;;
53871;SDS011;39787;53.174;5.798;2023-07-28T02:10:04;36.27;;;6.40;;
53871;SDS011;39787;53.174;5.798;2023-07-28T02:11:05;30.88;;;5.90;;
53871;SDS011;39787;53.174;5.798;2023-07-28T02:12:06;30.70;;;6.47;;
53871;SDS011;39787;53.174;5.798;2023-07-28T02:13:06;29.13;;;5.57;;
53871;SDS011;39787;53.174;5.798;2023-07-28T02:14:07;37.53;;;6.23;;
53871;SDS011;39787;53.174;5.798;2023-07-28T02:15:08;29.00;;;6.23;;
53871;SDS011;39787;53.174;5.798;2023-07-28T02:16:08;38.88;;;6.60;;
53871;SDS011;39787;53.174;5.798;2023-07-28T02:17:09;45.93;;;8.50;;
53871;SDS011;39787;53.174;5.798;2023-07-28T02:18:09;29.17;;;6.07;;
53871;SDS011;39787;53.174;5.798;2023-07-28T02:19:10;25.43;;;5.80;;
53871;SDS011;39787;53.174;5.798;2023-07-28T02:20:10;30.27;;;6.13;;
53871;SDS011;39787;53.174;5.798;2023-07-28T02:21:11;34.13;;;6.57;;
53871;SDS011;39787;53.174;5.798;2023-07-28T02:22:11;24.80;;;6.00;;
53871;SDS011;39787;53.174;5.798;2023-07-28T02:23:12;33.40;;;7.03;;
53871;SDS011;39787;53.174;5.798;2023-07-28T02:24:12;27.50;;;6.73;;
53871;SDS011;39787;53.174;5.798;2023-07-28T02:25:13;44.23;;;7.13;;
53871;SDS011;39787;53.174;5.798;2023-07-28T02:26:13;26.57;;;6.63;;
53871;SDS011;39787;53.174;5.798;2023-07-28T02:27:14;32.70;;;6.43;;
53871;SDS011;39787;53.174;5.798;2023-07-28T02:28:14;31.87;;;6.57;;
53871;SDS011;39787;53.174;5.798;2023-07-28T02:29:15;33.43;;;7.40;;
53871;SDS011;39787;53.174;5.798;2023-07-28T02:30:15;34.90;;;6.17;;
53871;SDS011;39787;53.174;5.798;2023-07-28T02:31:16;36.90;;;5.70;;
53871;SDS011;39787;53.174;5.798;2023-07-28T02:32:16;42.33;;;7.00;;
53871;SDS011;39787;53.174;5.798;2023-07-28T02:33:17;35.73;;;7.03;;
53871;SDS011;39787;53.174;5.798;2023-07-28T02:34:17;31.60;;;5.83;;
53871;SDS011;39787;53.174;5.798;2023-07-28T02:35:18;32.03;;;6.30;;
53871;SDS011;39787;53.174;5.798;2023-07-28T02:36:18;30.90;;;6.27;;
53871;SDS011;39787;53.174;5.798;2023-07-28T02:37:18;34.03;;;6.40;;
53871;SDS011;39787;53.174;5.798;2023-07-28T02:38:19;33.03;;;7.20;;
53871;SDS011;39787;53.174;5.798;2023-07-28T02:39:19;43.63;;;7.53;;
53871;SDS011;39787;53.174;5.798;2023-07-28T02:40:20;35.27;;;5.97;;
53871;SDS011;39787;53.174;5.798;2023-07-28T02:41:20;32.20;;;6.57;;
53871;SDS011;39787;53.174;5.798;2023-07-28T02:42:21;36.73;;;6.60;;
53871;SDS011;39787;53.174;5.798;2023-07-28T02:43:21;32.30;;;6.93;;
53871;SDS011;39787;53.174;5.798;2023-07-28T02:44:22;40.83;;;6.77;;
53871;SDS011;39787;53.174;5.798;2023-07-28T02:45:22;38.27;;;7.40;;
53871;SDS011;39787;53.174;5.798;2023-07-28T02:46:23;32.63;;;6.67;;
53871;SDS011;39787;53.174;5.798;2023-07-28T02:47:23;31.83;;;7.17;;
53871;SDS011;39787;53.174;5.798;2023-07-28T02:48:24;41.40;;;7.07;;
53871;SDS011;39787;53.174;5.798;2023-07-28T02:49:24;27.87;;;5.57;;
53871;SDS011;39787;53.174;5.798;2023-07-28T02:50:25;35.37;;;6.33;;
53871;SDS011;39787;53.174;5.798;2023-07-28T02:51:25;38.47;;;7.13;;
53871;SDS011;39787;53.174;5.798;2023-07-28T02:52:26;29.13;;;5.83;;
53871;SDS011;39787;53.174;5.798;2023-07-28T02:53:26;30.70;;;6.00;;
53871;SDS011;39787;53.174;5.798;2023-07-28T02:54:27;26.40;;;6.53;;
53871;SDS011;39787;53.174;5.798;2023-07-28T02:55:27;32.75;;;6.35;;
53871;SDS011;39787;53.174;5.798;2023-07-28T02:56:28;25.63;;;6.67;;
53871;SDS011;39787;53.174;5.798;2023-07-28T02:57:28;28.33;;;7.10;;
53871;SDS011;39787;53.174;5.798;2023-07-28T02:58:29;29.43;;;5.93;;
53871;SDS011;39787;53.174;5.798;2023-07-28T02:59:29;28.27;;;6.70;;
53871;SDS011;39787;53.174;5.798;2023-07-28T03:00:30;26.97;;;6.50;;
53871;SDS011;39787;53.174;5.798;2023-07-28T03:01:30;35.57;;;6.13;;
53871;SDS011;39787;53.174;5.798;2023-07-28T03:02:31;31.33;;;6.55;;
53871;SDS011;39787;53.174;5.798;2023-07-28T03:03:31;17.47;;;5.60;;
53871;SDS011;39787;53.174;5.798;2023-07-28T03:04:32;26.00;;;6.07;;
53871;SDS011;39787;53.174;5.798;2023-07-28T03:05:32;27.90;;;5.60;;
53871;SDS011;39787;53.174;5.798;2023-07-28T03:06:33;24.80;;;6.60;;
53871;SDS011;39787;53.174;5.798;2023-07-28T03:07:33;29.27;;;5.80;;
53871;SDS011;39787;53.174;5.798;2023-07-28T03:08:34;30.00;;;6.30;;
53871;SDS011;39787;53.174;5.798;2023-07-28T03:09:34;22.53;;;5.50;;
53871;SDS011;39787;53.174;5.798;2023-07-28T03:10:35;18.83;;;4.70;;
53871;SDS011;39787;53.174;5.798;2023-07-28T03:11:36;23.23;;;5.57;;
53871;SDS011;39787;53.174;5.798;2023-07-28T03:12:36;22.42;;;5.85;;
53871;SDS011;39787;53.174;5.798;2023-07-28T03:13:37;25.43;;;5.43;;
53871;SDS011;39787;53.174;5.798;2023-07-28T03:14:37;23.17;;;5.73;;
53871;SDS011;39787;53.174;5.798;2023-07-28T03:15:38;26.87;;;5.10;;
53871;SDS011;39787;53.174;5.798;2023-07-28T03:16:38;21.33;;;5.03;;
53871;SDS011;39787;53.174;5.798;2023-07-28T03:17:40;21.33;;;4.97;;
53871;SDS011;39787;53.174;5.798;2023-07-28T03:18:40;17.90;;;4.93;;
53871;SDS011;39787;53.174;5.798;2023-07-28T03:19:41;22.13;;;5.33;;
53871;SDS011;39787;53.174;5.798;2023-07-28T03:20:41;18.97;;;5.43;;
53871;SDS011;39787;53.174;5.798;2023-07-28T03:21:42;42.60;;;5.10;;
53871;SDS011;39787;53.174;5.798;2023-07-28T03:22:42;20.47;;;4.67;;
53871;SDS011;39787;53.174;5.798;2023-07-28T03:23:43;22.60;;;5.30;;
53871;SDS011;39787;53.174;5.798;2023-07-28T03:24:43;18.67;;;4.90;;
53871;SDS011;39787;53.174;5.798;2023-07-28T03:25:44;18.37;;;5.03;;
53871;SDS011;39787;53.174;5.798;2023-07-28T03:26:44;22.30;;;5.47;;
53871;SDS011;39787;53.174;5.798;2023-07-28T03:27:45;24.57;;;5.80;;
53871;SDS011;39787;53.174;5.798;2023-07-28T03:28:45;18.13;;;5.33;;
53871;SDS011;39787;53.174;5.798;2023-07-28T03:29:45;18.97;;;5.30;;
53871;SDS011;39787;53.174;5.798;2023-07-28T03:30:46;25.47;;;5.97;;
53871;SDS011;39787;53.174;5.798;2023-07-28T03:31:47;21.30;;;5.40;;
53871;SDS011;39787;53.174;5.798;2023-07-28T03:32:47;21.43;;;5.43;;
53871;SDS011;39787;53.174;5.798;2023-07-28T03:33:47;25.53;;;5.03;;
53871;SDS011;39787;53.174;5.798;2023-07-28T03:34:48;20.30;;;5.40;;
53871;SDS011;39787;53.174;5.798;2023-07-28T03:35:48;20.83;;;5.23;;
53871;SDS011;39787;53.174;5.798;2023-07-28T03:36:49;19.57;;;4.70;;
53871;SDS011;39787;53.174;5.798;2023-07-28T03:37:49;17.37;;;5.67;;
53871;SDS011;39787;53.174;5.798;2023-07-28T03:38:50;22.27;;;5.53;;
53871;SDS011;39787;53.174;5.798;2023-07-28T03:39:50;16.13;;;5.13;;
53871;SDS011;39787;53.174;5.798;2023-07-28T03:40:51;22.17;;;4.70;;
53871;SDS011;39787;53.174;5.798;2023-07-28T03:41:51;26.27;;;5.13;;
53871;SDS011;39787;53.174;5.798;2023-07-28T03:42:52;24.90;;;4.30;;
53871;SDS011;39787;53.174;5.798;2023-07-28T03:43:53;26.15;;;6.13;;
53871;SDS011;39787;53.174;5.798;2023-07-28T03:44:53;24.37;;;4.87;;
53871;SDS011;39787;53.174;5.798;2023-07-28T03:45:54;18.63;;;4.87;;
53871;SDS011;39787;53.174;5.798;2023-07-28T03:46:54;21.43;;;4.93;;
53871;SDS011;39787;53.174;5.798;2023-07-28T03:47:55;14.57;;;4.20;;
53871;SDS011;39787;53.174;5.798;2023-07-28T03:48:55;17.33;;;3.90;;
53871;SDS011;39787;53.174;5.798;2023-07-28T03:49:55;19.93;;;4.53;;
53871;SDS011;39787;53.174;5.798;2023-07-28T03:50:56;19.40;;;4.67;;
53871;SDS011;39787;53.174;5.798;2023-07-28T03:51:56;17.97;;;5.43;;
53871;SDS011;39787;53.174;5.798;2023-07-28T03:52:57;22.97;;;4.87;;
53871;SDS011;39787;53.174;5.798;2023-07-28T03:53:57;21.27;;;5.40;;
53871;SDS011;39787;53.174;5.798;2023-07-28T03:54:58;14.63;;;4.37;;
53871;SDS011;39787;53.174;5.798;2023-07-28T03:55:58;15.37;;;4.40;;
53871;SDS011;39787;53.174;5.798;2023-07-28T03:56:59;16.83;;;4.70;;
53871;SDS011;39787;53.174;5.798;2023-07-28T03:57:59;17.40;;;4.90;;
53871;SDS011;39787;53.174;5.798;2023-07-28T03:59:00;18.67;;;4.70;;
53871;SDS011;39787;53.174;5.798;2023-07-28T04:00:00;18.20;;;4.47;;
53871;SDS011;39787;53.174;5.798;2023-07-28T04:01:01;21.53;;;4.97;;
53871;SDS011;39787;53.174;5.798;2023-07-28T04:02:01;16.80;;;5.43;;
53871;SDS011;39787;53.174;5.798;2023-07-28T04:03:02;15.93;;;5.00;;
53871;SDS011;39787;53.174;5.798;2023-07-28T04:04:02;14.80;;;4.37;;
53871;SDS011;39787;53.174;5.798;2023-07-28T04:05:03;17.93;;;5.13;;
53871;SDS011;39787;53.174;5.798;2023-07-28T04:06:09;14.47;;;4.60;;
53871;SDS011;39787;53.174;5.798;2023-07-28T04:07:10;16.90;;;5.05;;
53871;SDS011;39787;53.174;5.798;2023-07-28T04:08:11;18.93;;;4.97;;
53871;SDS011;39787;53.174;5.798;2023-07-28T04:09:13;15.97;;;5.10;;
53871;SDS011;39787;53.174;5.798;2023-07-28T04:10:14;14.40;;;4.78;;
53871;SDS011;39787;53.174;5.798;2023-07-28T04:11:14;16.87;;;5.00;;
53871;SDS011;39787;53.174;5.798;2023-07-28T04:12:15;26.10;;;5.33;;
53871;SDS011;39787;53.174;5.798;2023-07-28T04:13:15;17.63;;;4.30;;
53871;SDS011;39787;53.174;5.798;2023-07-28T04:14:16;15.23;;;4.33;;
53871;SDS011;39787;53.174;5.798;2023-07-28T04:15:16;16.87;;;4.93;;
53871;SDS011;39787;53.174;5.798;2023-07-28T04:16:17;15.83;;;4.47;;
53871;SDS011;39787;53.174;5.798;2023-07-28T04:17:17;16.23;;;5.27;;
53871;SDS011;39787;53.174;5.798;2023-07-28T04:18:18;15.40;;;5.13;;
53871;SDS011;39787;53.174;5.798;2023-07-28T04:19:18;19.00;;;7.10;;
53871;SDS011;39787;53.174;5.798;2023-07-28T04:20:19;16.43;;;5.40;;
53871;SDS011;39787;53.174;5.798;2023-07-28T04:21:19;16.13;;;6.47;;
53871;SDS011;39787;53.174;5.798;2023-07-28T04:22:20;19.57;;;6.30;;
53871;SDS011;39787;53.174;5.798;2023-07-28T04:23:20;13.33;;;5.23;;
53871;SDS011;39787;53.174;5.798;2023-07-28T04:24:21;15.77;;;5.43;;
53871;SDS011;39787;53.174;5.798;2023-07-28T04:25:21;15.83;;;6.37;;
53871;SDS011;39787;53.174;5.798;2023-07-28T04:26:22;18.87;;;5.63;;
53871;SDS011;39787;53.174;5.798;2023-07-28T04:27:24;17.23;;;6.75;;
53871;SDS011;39787;53.174;5.798;2023-07-28T04:28:24;15.23;;;6.40;;
53871;SDS011;39787;53.174;5.798;2023-07-28T04:29:25;18.07;;;6.27;;
53871;SDS011;39787;53.174;5.798;2023-07-28T04:30:25;16.60;;;6.60;;
53871;SDS011;39787;53.174;5.798;2023-07-28T04:31:26;20.67;;;6.83;;
53871;SDS011;39787;53.174;5.798;2023-07-28T04:32:26;15.03;;;7.50;;
53871;SDS011;39787;53.174;5.798;2023-07-28T04:33:27;13.60;;;7.50;;
53871;SDS011;39787;53.174;5.798;2023-07-28T04:34:27;14.60;;;7.80;;
53871;SDS011;39787;53.174;5.798;2023-07-28T04:35:29;13.60;;;7.03;;
53871;SDS011;39787;53.174;5.798;2023-07-28T04:36:30;19.75;;;7.88;;
53871;SDS011;39787;53.174;5.798;2023-07-28T04:37:31;16.87;;;7.53;;
53871;SDS011;39787;53.174;5.798;2023-07-28T04:38:31;17.57;;;8.10;;
53871;SDS011;39787;53.174;5.798;2023-07-28T04:39:32;15.70;;;7.87;;
53871;SDS011;39787;53.174;5.798;2023-07-28T04:40:32;23.47;;;8.77;;
53871;SDS011;39787;53.174;5.798;2023-07-28T04:41:32;18.10;;;8.60;;
53871;SDS011;39787;53.174;5.798;2023-07-28T04:42:33;15.07;;;8.70;;
53871;SDS011;39787;53.174;5.798;2023-07-28T04:43:34;18.90;;;8.73;;
53871;SDS011;39787;53.174;5.798;2023-07-28T04:44:34;18.17;;;10.23;;
53871;SDS011;39787;53.174;5.798;2023-07-28T04:45:38;16.53;;;9.47;;
53871;SDS011;39787;53.174;5.798;2023-07-28T04:46:38;16.33;;;9.30;;
53871;SDS011;39787;53.174;5.798;2023-07-28T04:47:38;15.17;;;8.87;;
53871;SDS011;39787;53.174;5.798;2023-07-28T04:48:39;14.10;;;9.90;;
53871;SDS011;39787;53.174;5.798;2023-07-28T04:49:39;17.90;;;10.03;;
53871;SDS011;39787;53.174;5.798;2023-07-28T04:50:40;14.17;;;9.07;;
53871;SDS011;39787;53.174;5.798;2023-07-28T04:51:40;16.93;;;9.23;;
53871;SDS011;39787;53.174;5.798;2023-07-28T04:52:41;13.80;;;9.33;;
53871;SDS011;39787;53.174;5.798;2023-07-28T04:53:41;15.87;;;9.00;;
53871;SDS011;39787;53.174;5.798;2023-07-28T04:54:42;15.43;;;9.90;;
53871;SDS011;39787;53.174;5.798;2023-07-28T04:55:42;15.00;;;9.47;;
53871;SDS011;39787;53.174;5.798;2023-07-28T04:56:43;14.33;;;8.67;;
53871;SDS011;39787;53.174;5.798;2023-07-28T04:57:43;18.77;;;10.20;;
53871;SDS011;39787;53.174;5.798;2023-07-28T04:58:44;14.83;;;9.23;;
53871;SDS011;39787;53.174;5.798;2023-07-28T04:59:44;20.13;;;10.37;;
53871;SDS011;39787;53.174;5.798;2023-07-28T05:00:45;14.70;;;9.47;;
53871;SDS011;39787;53.174;5.798;2023-07-28T05:01:45;15.30;;;9.17;;
53871;SDS011;39787;53.174;5.798;2023-07-28T05:02:46;15.80;;;9.33;;
53871;SDS011;39787;53.174;5.798;2023-07-28T05:03:46;16.30;;;9.93;;
53871;SDS011;39787;53.174;5.798;2023-07-28T05:04:47;15.40;;;10.17;;
53871;SDS011;39787;53.174;5.798;2023-07-28T05:05:47;14.23;;;9.43;;
53871;SDS011;39787;53.174;5.798;2023-07-28T05:06:48;21.60;;;9.80;;
53871;SDS011;39787;53.174;5.798;2023-07-28T05:07:48;20.23;;;10.20;;
53871;SDS011;39787;53.174;5.798;2023-07-28T05:08:48;18.07;;;10.23;;
53871;SDS011;39787;53.174;5.798;2023-07-28T05:09:49;16.33;;;10.03;;
53871;SDS011;39787;53.174;5.798;2023-07-28T05:10:49;18.50;;;10.00;;
53871;SDS011;39787;53.174;5.798;2023-07-28T05:11:50;17.10;;;10.00;;
53871;SDS011;39787;53.174;5.798;2023-07-28T05:12:50;16.70;;;10.07;;
53871;SDS011;39787;53.174;5.798;2023-07-28T05:13:51;17.40;;;9.93;;
53871;SDS011;39787;53.174;5.798;2023-07-28T05:14:51;17.77;;;10.07;;
53871;SDS011;39787;53.174;5.798;2023-07-28T05:15:52;18.07;;;10.57;;
53871;SDS011;39787;53.174;5.798;2023-07-28T05:16:52;17.40;;;10.63;;
53871;SDS011;39787;53.174;5.798;2023-07-28T05:17:53;15.80;;;10.00;;
53871;SDS011;39787;53.174;5.798;2023-07-28T05:18:53;13.77;;;10.60;;
53871;SDS011;39787;53.174;5.798;2023-07-28T05:19:54;23.33;;;10.57;;
53871;SDS011;39787;53.174;5.798;2023-07-28T05:20:54;16.57;;;9.87;;
53871;SDS011;39787;53.174;5.798;2023-07-28T05:21:55;12.20;;;9.90;;
53871;SDS011;39787;53.174;5.798;2023-07-28T05:22:56;18.60;;;11.13;;
53871;SDS011;39787;53.174;5.798;2023-07-28T05:23:56;16.87;;;11.40;;
53871;SDS011;39787;53.174;5.798;2023-07-28T05:24:57;17.13;;;10.00;;
53871;SDS011;39787;53.174;5.798;2023-07-28T05:25:57;17.33;;;10.30;;
53871;SDS011;39787;53.174;5.798;2023-07-28T05:26:57;19.13;;;10.30;;
53871;SDS011;39787;53.174;5.798;2023-07-28T05:27:58;12.80;;;10.13;;
53871;SDS011;39787;53.174;5.798;2023-07-28T05:28:58;23.43;;;10.23;;
53871;SDS011;39787;53.174;5.798;2023-07-28T05:29:59;21.10;;;10.67;;
53871;SDS011;39787;53.174;5.798;2023-07-28T05:31:05;15.83;;;10.87;;
53871;SDS011;39787;53.174;5.798;2023-07-28T05:32:07;13.25;;;10.27;;
53871;SDS011;39787;53.174;5.798;2023-07-28T05:33:07;17.35;;;9.45;;
53871;SDS011;39787;53.174;5.798;2023-07-28T05:34:08;20.27;;;10.60;;
53871;SDS011;39787;53.174;5.798;2023-07-28T05:35:08;15.77;;;10.50;;
53871;SDS011;39787;53.174;5.798;2023-07-28T05:36:09;14.60;;;10.10;;
53871;SDS011;39787;53.174;5.798;2023-07-28T05:37:10;13.60;;;10.43;;
53871;SDS011;39787;53.174;5.798;2023-07-28T05:38:10;20.48;;;10.30;;
53871;SDS011;39787;53.174;5.798;2023-07-28T05:39:11;17.67;;;11.33;;
53871;SDS011;39787;53.174;5.798;2023-07-28T05:40:12;16.67;;;10.77;;
53871;SDS011;39787;53.174;5.798;2023-07-28T05:41:13;14.68;;;10.60;;
53871;SDS011;39787;53.174;5.798;2023-07-28T05:42:13;19.00;;;11.50;;
53871;SDS011;39787;53.174;5.798;2023-07-28T05:43:13;13.87;;;10.67;;
53871;SDS011;39787;53.174;5.798;2023-07-28T05:44:14;13.83;;;10.90;;
53871;SDS011;39787;53.174;5.798;2023-07-28T05:45:15;17.90;;;11.17;;
53871;SDS011;39787;53.174;5.798;2023-07-28T05:46:15;16.10;;;10.97;;
53871;SDS011;39787;53.174;5.798;2023-07-28T05:47:16;18.30;;;11.03;;
53871;SDS011;39787;53.174;5.798;2023-07-28T05:48:16;17.90;;;11.17;;
53871;SDS011;39787;53.174;5.798;2023-07-28T05:49:16;17.70;;;11.13;;
53871;SDS011;39787;53.174;5.798;2023-07-28T05:50:17;11.30;;;10.13;;
53871;SDS011;39787;53.174;5.798;2023-07-28T05:51:17;16.27;;;11.57;;
53871;SDS011;39787;53.174;5.798;2023-07-28T05:52:18;15.90;;;10.93;;
53871;SDS011;39787;53.174;5.798;2023-07-28T05:53:22;18.27;;;11.57;;
53871;SDS011;39787;53.174;5.798;2023-07-28T05:54:22;14.05;;;11.10;;
53871;SDS011;39787;53.174;5.798;2023-07-28T05:55:23;16.77;;;11.20;;
53871;SDS011;39787;53.174;5.798;2023-07-28T05:56:23;20.40;;;11.10;;
53871;SDS011;39787;53.174;5.798;2023-07-28T05:57:24;14.70;;;10.40;;
53871;SDS011;39787;53.174;5.798;2023-07-28T05:58:24;15.17;;;10.20;;
53871;SDS011;39787;53.174;5.798;2023-07-28T05:59:25;14.10;;;10.77;;
53871;SDS011;39787;53.174;5.798;2023-07-28T06:00:25;12.30;;;10.17;;
53871;SDS011;39787;53.174;5.798;2023-07-28T06:01:26;12.77;;;10.57;;
53871;SDS011;39787;53.174;5.798;2023-07-28T06:02:26;14.97;;;10.70;;